createdAt,value
2019-01-22T00:00:18.471Z,86.55
2019-01-22T00:02:47.220Z,86.34
2019-01-22T00:05:15.719Z,86.94
2019-01-22T00:07:44.484Z,87.02
2019-01-22T00:10:13.415Z,87.09
2019-01-22T00:12:41.854Z,86.25
2019-01-22T00:15:12.763Z,86.29
2019-01-22T00:17:41.812Z,86.10
2019-01-22T00:20:12.738Z,86.33
2019-01-22T00:22:41.543Z,86.34
2019-01-22T00:25:15.082Z,86.57
2019-01-22T00:27:43.821Z,86.34
2019-01-22T00:30:18.658Z,85.98
2019-01-22T00:32:47.163Z,86.23
2019-01-22T00:35:16.228Z,85.94
2019-01-22T00:37:45.065Z,86.07
2019-01-22T00:40:16.606Z,86.51
2019-01-22T00:42:45.477Z,86.61
2019-01-22T00:45:14.614Z,85.92
2019-01-22T00:47:43.216Z,86.31
2019-01-22T00:50:17.423Z,85.80
2019-01-22T00:52:46.128Z,85.92
2019-01-22T00:55:18.102Z,85.61
2019-01-22T00:57:46.965Z,85.54
2019-01-22T01:00:21.297Z,85.93
2019-01-22T01:02:50.157Z,85.78
2019-01-22T01:05:18.975Z,86.25
2019-01-22T01:07:47.962Z,86.03
2019-01-22T01:10:17.702Z,86.09
2019-01-22T01:12:46.534Z,86.24
2019-01-22T01:15:15.863Z,86.45
2019-01-22T01:17:44.439Z,85.96
2019-01-22T01:20:21.356Z,85.96
2019-01-22T01:22:49.875Z,86.21
2019-01-22T01:25:20.840Z,85.91
2019-01-22T01:27:49.717Z,85.88
2019-01-22T01:30:21.452Z,85.72
2019-01-22T01:32:50.382Z,86.23
2019-01-22T01:35:19.137Z,86.18
2019-01-22T01:37:47.901Z,86.37
2019-01-22T01:40:17.673Z,85.80
2019-01-22T01:42:46.580Z,86.14
2019-01-22T01:45:16.554Z,86.26
2019-01-22T01:47:45.569Z,86.42
2019-01-22T01:50:16.240Z,86.24
2019-01-22T01:52:45.018Z,86.28
2019-01-22T01:55:15.980Z,85.77
2019-01-22T01:57:44.790Z,85.26
2019-01-22T02:00:16.936Z,85.67
2019-01-22T02:02:45.858Z,85.75
2019-01-22T02:05:14.724Z,86.26
2019-01-22T02:07:43.502Z,86.32
2019-01-22T02:10:14.926Z,86.77
2019-01-22T02:12:49.415Z,86.07
2019-01-22T02:15:23.666Z,86.25
2019-01-22T02:18:03.853Z,86.22
2019-01-22T02:20:41.445Z,86.10
2019-01-22T02:23:18.656Z,85.52
2019-01-22T02:25:50.424Z,85.54
2019-01-22T02:28:36.840Z,85.52
2019-01-22T02:31:25.650Z,85.52
2019-01-22T02:33:57.409Z,84.70
2019-01-22T02:36:46.753Z,85.38
2019-01-22T02:39:24.394Z,85.70
2019-01-22T02:41:56.178Z,85.86
2019-01-22T02:44:44.486Z,85.33
2019-01-22T02:47:21.619Z,85.50
2019-01-22T02:50:02.311Z,85.29
2019-01-22T02:52:52.057Z,85.18
2019-01-22T02:55:23.529Z,85.53
2019-01-22T02:58:13.329Z,85.88
2019-01-22T03:00:57.133Z,86.10
2019-01-22T03:03:55.721Z,85.26
2019-01-22T03:06:51.482Z,85.84
2019-01-22T03:09:26.220Z,85.59
2019-01-22T03:12:07.416Z,85.37
2019-01-22T03:14:57.077Z,85.92
2019-01-22T03:17:34.204Z,85.54
2019-01-22T03:20:05.959Z,85.44
2019-01-22T03:22:45.975Z,85.56
2019-01-22T03:25:17.449Z,84.49
2019-01-22T03:27:55.537Z,85.28
2019-01-22T03:30:46.600Z,85.08
2019-01-22T03:33:33.215Z,84.73
2019-01-22T03:36:10.657Z,84.15
2019-01-22T03:38:54.014Z,85.11
2019-01-22T03:41:28.854Z,85.39
2019-01-22T03:44:09.421Z,85.55
2019-01-22T03:47:00.527Z,85.62
2019-01-22T03:49:32.287Z,85.22
2019-01-22T03:52:06.951Z,85.10
2019-01-22T03:54:53.639Z,85.12
2019-01-22T03:57:28.050Z,85.40
2019-01-22T03:59:56.968Z,85.67
2019-01-22T04:02:27.060Z,86.12
2019-01-22T04:04:55.549Z,86.09
2019-01-22T04:07:24.246Z,85.68
2019-01-22T04:09:54.604Z,85.77
2019-01-22T04:12:23.402Z,85.66
2019-01-22T04:14:52.150Z,85.74
2019-01-22T04:17:20.632Z,84.98
2019-01-22T04:19:49.487Z,84.78
2019-01-22T04:22:20.483Z,84.93
2019-01-22T04:24:55.188Z,84.98
2019-01-22T04:27:29.958Z,84.19
2019-01-22T04:30:21.091Z,84.91
2019-01-22T04:32:52.852Z,84.63
2019-01-22T04:35:30.478Z,84.25
2019-01-22T04:38:05.075Z,83.91
2019-01-22T04:40:53.638Z,83.72
2019-01-22T04:43:25.400Z,83.16
2019-01-22T04:46:03.298Z,83.23
2019-01-22T04:48:56.213Z,83.07
2019-01-22T04:51:33.859Z,83.09
2019-01-22T04:54:09.610Z,82.97
2019-01-22T04:56:59.934Z,83.06
2019-01-22T04:59:40.766Z,83.19
2019-01-22T05:02:30.268Z,83.18
2019-01-22T05:05:13.843Z,83.67
2019-01-22T05:07:45.587Z,83.03
2019-01-22T05:10:17.321Z,83.07
2019-01-22T05:12:58.169Z,83.24
2019-01-22T05:15:53.895Z,82.71
2019-01-22T05:18:58.708Z,82.31
2019-01-22T05:21:30.181Z,82.91
2019-01-22T05:24:31.756Z,82.65
2019-01-22T05:27:11.966Z,82.49
2019-01-22T05:29:46.641Z,82.49
2019-01-22T05:32:49.675Z,82.59
2019-01-22T05:35:51.300Z,82.39
2019-01-22T05:38:38.052Z,82.34
2019-01-22T05:41:09.955Z,82.43
2019-01-22T05:43:59.951Z,82.02
2019-01-22T05:46:31.755Z,82.02
2019-01-22T05:49:06.763Z,82.22
2019-01-22T05:51:38.623Z,82.18
2019-01-22T05:54:16.247Z,82.30
2019-01-22T05:56:53.516Z,81.91
2019-01-22T05:59:41.766Z,81.95
2019-01-22T06:02:13.072Z,81.85
2019-01-22T06:05:02.861Z,81.45
2019-01-22T06:07:42.978Z,81.27
2019-01-22T06:10:37.160Z,81.03
2019-01-22T06:13:17.770Z,80.83
2019-01-22T06:16:13.349Z,80.65
2019-01-22T06:18:47.839Z,80.52
2019-01-22T06:21:35.794Z,80.66
2019-01-22T06:24:19.400Z,80.64
2019-01-22T06:26:57.112Z,80.95
2019-01-22T06:29:31.109Z,80.95
2019-01-22T06:32:05.595Z,80.80
2019-01-22T06:34:55.326Z,80.35
2019-01-22T06:37:38.768Z,80.55
2019-01-22T06:40:22.684Z,80.30
2019-01-22T06:43:06.316Z,80.05
2019-01-22T06:45:44.093Z,80.00
2019-01-22T06:48:42.017Z,80.03
2019-01-22T06:51:25.861Z,79.76
2019-01-22T06:54:09.560Z,79.38
2019-01-22T06:56:50.029Z,79.93
2019-01-22T06:59:27.179Z,79.52
2019-01-22T07:01:58.901Z,80.10
2019-01-22T07:04:44.960Z,79.55
2019-01-22T07:07:25.131Z,79.35
2019-01-22T07:10:08.734Z,79.28
2019-01-22T07:12:52.319Z,79.99
2019-01-22T07:15:30.092Z,79.90
2019-01-22T07:18:23.061Z,79.48
2019-01-22T07:21:10.864Z,79.32
2019-01-22T07:23:54.456Z,79.55
2019-01-22T07:26:40.985Z,79.23
2019-01-22T07:29:18.668Z,80.03
2019-01-22T07:31:59.376Z,79.94
2019-01-22T07:34:39.676Z,79.84
2019-01-22T07:37:20.066Z,80.15
2019-01-22T07:40:11.540Z,80.47
2019-01-22T07:42:55.369Z,80.52
2019-01-22T07:45:32.708Z,80.72
2019-01-22T07:48:04.201Z,80.31
2019-01-22T07:50:57.383Z,80.92
2019-01-22T07:53:37.404Z,80.92
2019-01-22T07:56:17.971Z,81.17
2019-01-22T07:58:58.383Z,81.01
2019-01-22T08:01:57.411Z,80.84
2019-01-22T08:04:33.492Z,81.04
2019-01-22T08:07:29.393Z,81.26
2019-01-22T08:10:12.697Z,80.97
2019-01-22T08:12:44.479Z,81.00
2019-01-22T08:15:25.370Z,80.83
2019-01-22T08:18:15.146Z,80.74
2019-01-22T08:20:55.379Z,81.20
2019-01-22T08:23:35.856Z,80.80
2019-01-22T08:26:19.453Z,81.07
2019-01-22T08:29:02.357Z,81.38
2019-01-22T08:32:01.128Z,80.92
2019-01-22T08:34:50.925Z,80.87
2019-01-22T08:37:40.283Z,80.52
2019-01-22T08:40:23.826Z,80.40
2019-01-22T08:43:17.792Z,80.96
2019-01-22T08:45:52.295Z,80.55
2019-01-22T08:48:40.557Z,80.17
2019-01-22T08:51:43.878Z,79.96
2019-01-22T08:54:43.308Z,79.94
2019-01-22T08:57:30.149Z,79.19
2019-01-22T09:00:17.115Z,79.22
2019-01-22T09:02:57.582Z,79.45
2019-01-22T09:05:38.075Z,79.01
2019-01-22T09:08:15.584Z,78.73
2019-01-22T09:11:05.606Z,78.10
2019-01-22T09:13:52.182Z,78.04
2019-01-22T09:16:32.598Z,77.88
2019-01-22T09:19:16.122Z,77.57
2019-01-22T09:22:05.765Z,76.93
2019-01-22T09:24:43.439Z,76.00
2019-01-22T09:27:34.880Z,75.71
2019-01-22T09:30:35.592Z,75.36
2019-01-22T09:33:09.881Z,75.06
2019-01-22T09:35:47.175Z,74.23
2019-01-22T09:38:15.707Z,74.61
2019-01-22T09:40:44.463Z,74.50
2019-01-22T09:43:13.270Z,74.48
2019-01-22T09:45:41.754Z,73.44
2019-01-22T09:48:10.589Z,74.06
2019-01-22T09:50:39.089Z,73.70
2019-01-22T09:53:07.848Z,72.86
2019-01-22T09:55:36.597Z,74.23
2019-01-22T09:58:05.477Z,73.70
2019-01-22T10:00:34.313Z,73.63
2019-01-22T10:03:02.823Z,73.45
2019-01-22T10:05:31.258Z,73.06
2019-01-22T10:07:59.973Z,71.82
2019-01-22T10:10:28.743Z,71.64
2019-01-22T10:12:57.510Z,72.14
2019-01-22T10:15:26.290Z,72.24
2019-01-22T10:17:55.052Z,72.26
2019-01-22T10:20:24.712Z,72.05
2019-01-22T10:22:53.545Z,71.96
2019-01-22T10:25:22.035Z,72.50
2019-01-22T10:27:51.314Z,72.19
2019-01-22T10:30:25.065Z,72.03
2019-01-22T10:32:53.749Z,71.68
2019-01-22T10:35:22.321Z,71.48
2019-01-22T10:37:50.871Z,71.50
2019-01-22T10:40:22.693Z,71.63
2019-01-22T10:42:51.251Z,71.11
2019-01-22T10:45:20.764Z,70.58
2019-01-22T10:47:49.626Z,69.57
2019-01-22T10:50:20.745Z,70.83
2019-01-22T10:52:49.437Z,71.07
2019-01-22T10:55:18.008Z,70.24
2019-01-22T10:57:46.779Z,70.71
2019-01-22T11:00:21.333Z,70.30
2019-01-22T11:02:50.073Z,70.06
2019-01-22T11:05:27.241Z,69.93
2019-01-22T11:07:55.951Z,70.65
2019-01-22T11:10:24.425Z,69.92
2019-01-22T11:12:53.125Z,69.84
2019-01-22T11:15:27.880Z,69.84
2019-01-22T11:17:52.221Z,70.34
2019-01-22T11:20:26.330Z,70.35
2019-01-22T11:22:54.866Z,69.78
2019-01-22T11:25:26.151Z,69.97
2019-01-22T11:27:54.858Z,70.19
2019-01-22T11:30:25.337Z,69.78
2019-01-22T11:32:55.630Z,69.27
2019-01-22T11:35:25.107Z,69.74
2019-01-22T11:37:53.961Z,69.90
2019-01-22T11:40:43.056Z,69.59
2019-01-22T11:43:11.551Z,70.68
2019-01-22T11:45:40.132Z,69.32
2019-01-22T11:48:09.900Z,68.76
2019-01-22T11:50:38.650Z,69.29
2019-01-22T11:53:07.443Z,68.88
2019-01-22T11:55:36.203Z,69.22
2019-01-22T11:58:05.651Z,69.04
2019-01-22T12:00:37.672Z,68.34
2019-01-22T12:03:06.147Z,68.58
2019-01-22T12:05:34.973Z,68.06
2019-01-22T12:08:03.764Z,67.90
2019-01-22T12:10:32.210Z,68.29
2019-01-22T12:13:00.998Z,67.55
2019-01-22T12:15:29.677Z,68.10
2019-01-22T12:17:58.433Z,68.08
2019-01-22T12:20:36.049Z,67.74
2019-01-22T12:23:04.875Z,67.16
2019-01-22T12:25:33.320Z,67.21
2019-01-22T12:28:02.206Z,68.04
2019-01-22T12:30:37.991Z,68.21
2019-01-22T12:33:06.967Z,67.80
2019-01-22T12:35:35.739Z,67.80
2019-01-22T12:38:05.182Z,67.78
2019-01-22T12:40:33.909Z,67.59
2019-01-22T12:43:02.665Z,67.62
2019-01-22T12:45:34.015Z,66.89
2019-01-22T12:48:02.755Z,66.11
2019-01-22T12:50:31.596Z,67.16
2019-01-22T12:53:00.349Z,66.95
2019-01-22T12:55:28.852Z,66.81
2019-01-22T12:57:57.264Z,67.06
2019-01-22T13:00:34.577Z,67.32
2019-01-22T13:03:03.445Z,67.12
2019-01-22T13:05:35.174Z,67.13
2019-01-22T13:08:04.242Z,65.84
2019-01-22T13:10:32.711Z,66.59
2019-01-22T13:13:01.487Z,66.20
2019-01-22T13:15:30.302Z,66.92
2019-01-22T13:17:59.052Z,66.69
2019-01-22T13:20:27.894Z,67.06
2019-01-22T13:22:56.391Z,67.11
2019-01-22T13:25:25.349Z,66.36
2019-01-22T13:27:54.049Z,66.62
2019-01-22T13:30:29.869Z,66.27
2019-01-22T13:32:59.695Z,66.66
2019-01-22T13:35:28.235Z,67.42
2019-01-22T13:37:56.814Z,67.83
2019-01-22T13:40:25.652Z,66.90
2019-01-22T13:42:54.400Z,66.90
2019-01-22T13:45:26.123Z,66.98
2019-01-22T13:47:55.484Z,67.62
2019-01-22T13:50:24.750Z,67.75
2019-01-22T13:52:53.720Z,67.32
2019-01-22T13:55:24.897Z,67.59
2019-01-22T13:57:53.663Z,67.92
2019-01-22T14:00:27.003Z,67.31
2019-01-22T14:02:56.827Z,68.08
2019-01-22T14:05:25.675Z,68.66
2019-01-22T14:07:54.178Z,68.85
2019-01-22T14:10:23.060Z,69.02
2019-01-22T14:12:51.784Z,68.30
2019-01-22T14:15:30.541Z,69.00
2019-01-22T14:17:59.224Z,69.16
2019-01-22T14:20:27.920Z,68.97
2019-01-22T14:22:56.700Z,69.22
2019-01-22T14:25:25.546Z,69.13
2019-01-22T14:27:54.408Z,69.84
2019-01-22T14:30:26.183Z,70.34
2019-01-22T14:32:54.996Z,70.61
2019-01-22T14:35:23.836Z,70.40
2019-01-22T14:37:52.388Z,70.93
2019-01-22T14:40:20.988Z,70.33
2019-01-22T14:42:49.463Z,71.05
2019-01-22T14:45:20.205Z,71.07
2019-01-22T14:47:48.998Z,71.13
2019-01-22T14:50:20.789Z,70.94
2019-01-22T14:55:40.774Z,72.19
2019-01-22T14:58:09.589Z,71.71
2019-01-22T15:00:38.363Z,71.92
2019-01-22T15:03:07.396Z,72.42
2019-01-22T15:05:35.847Z,72.78
2019-01-22T15:08:04.635Z,73.00
2019-01-22T15:10:33.137Z,72.54
2019-01-22T15:13:01.936Z,72.64
2019-01-22T15:15:30.799Z,73.11
2019-01-22T15:17:59.638Z,73.40
2019-01-22T15:20:28.495Z,73.40
2019-01-22T15:22:57.245Z,73.53
2019-01-22T15:25:26.071Z,73.48
2019-01-22T15:27:54.887Z,74.21
2019-01-22T15:30:32.099Z,74.29
2019-01-22T15:33:00.966Z,74.03
2019-01-22T15:35:29.728Z,74.51
2019-01-22T15:37:59.951Z,74.17
2019-01-22T15:40:30.299Z,74.86
2019-01-22T15:42:59.066Z,74.49
2019-01-22T15:45:27.889Z,74.98
2019-01-22T15:47:56.838Z,75.68
2019-01-22T15:50:25.605Z,75.80
2019-01-22T15:52:54.407Z,75.59
2019-01-22T15:55:28.767Z,75.78
2019-01-22T15:57:57.704Z,75.84
2019-01-22T16:00:27.841Z,76.16
2019-01-22T16:02:56.619Z,76.05
2019-01-22T16:05:25.142Z,76.73
2019-01-22T16:07:53.990Z,76.16
2019-01-22T16:10:22.859Z,76.60
2019-01-22T16:12:51.647Z,76.56
2019-01-22T16:15:22.655Z,76.58
2019-01-22T16:17:51.744Z,76.77
2019-01-22T16:20:22.689Z,77.00
2019-01-22T16:22:51.526Z,76.93
2019-01-22T16:25:20.342Z,76.99
2019-01-22T16:27:49.082Z,77.10
2019-01-22T16:30:22.710Z,77.44
2019-01-22T16:32:51.268Z,77.53
2019-01-22T16:35:21.449Z,77.76
2019-01-22T16:37:50.256Z,77.54
2019-01-22T16:40:19.040Z,78.12
2019-01-22T16:42:48.403Z,78.12
2019-01-22T16:45:25.943Z,78.28
2019-01-22T16:47:54.740Z,78.87
2019-01-22T16:50:23.514Z,79.40
2019-01-22T16:52:52.407Z,80.34
2019-01-22T16:55:26.998Z,80.13
2019-01-22T16:57:55.408Z,80.70
2019-01-22T17:00:29.471Z,81.58
2019-01-22T17:02:57.970Z,82.58
2019-01-22T17:05:26.911Z,83.66
2019-01-22T17:07:55.690Z,84.32
2019-01-22T17:10:24.451Z,84.75
2019-01-22T17:12:53.264Z,85.43
2019-01-22T17:15:21.741Z,85.97
2019-01-22T17:17:50.532Z,85.98
2019-01-22T17:20:25.007Z,85.98
2019-01-22T17:22:53.814Z,86.02
2019-01-22T17:25:22.528Z,86.09
2019-01-22T17:27:51.197Z,86.72
2019-01-22T17:30:21.561Z,86.59
2019-01-22T17:32:54.992Z,87.19
2019-01-22T17:35:24.733Z,87.09
2019-01-22T17:37:53.404Z,87.53
2019-01-22T17:40:21.866Z,87.86
2019-01-22T17:42:50.544Z,87.90
2019-01-22T17:45:19.470Z,88.41
2019-01-22T17:47:48.164Z,88.39
2019-01-22T17:50:17.541Z,88.62
2019-01-22T17:52:46.341Z,89.50
2019-01-22T17:55:15.444Z,89.42
2019-01-22T17:57:43.967Z,89.47
2019-01-22T18:00:19.826Z,89.57
2019-01-22T18:02:48.347Z,89.86
2019-01-22T18:05:18.882Z,89.90
2019-01-22T18:07:48.556Z,90.07
2019-01-22T18:10:19.200Z,89.84
2019-01-22T18:12:47.899Z,90.00
2019-01-22T18:15:17.556Z,90.32
2019-01-22T18:17:46.323Z,90.13
2019-01-22T18:20:28.965Z,90.23
2019-01-22T18:22:57.679Z,90.51
2019-01-22T18:25:26.460Z,90.87
2019-01-22T18:27:55.367Z,91.12
2019-01-22T18:30:25.717Z,90.84
2019-01-22T18:32:56.704Z,90.88
2019-01-22T18:35:40.083Z,91.45
2019-01-22T18:38:08.837Z,91.32
2019-01-22T18:40:37.614Z,91.65
2019-01-22T18:43:06.997Z,91.71
2019-01-22T18:45:35.579Z,91.89
2019-01-22T18:48:04.479Z,91.98
2019-01-22T18:50:33.314Z,92.44
2019-01-22T18:53:02.005Z,92.53
2019-01-22T18:55:30.448Z,92.48
2019-01-22T18:57:59.119Z,92.70
2019-01-22T19:00:27.976Z,92.82
2019-01-22T19:02:56.495Z,92.79
2019-01-22T19:05:25.274Z,92.64
2019-01-22T19:07:53.799Z,92.56
2019-01-22T19:10:27.541Z,92.84
2019-01-22T19:12:56.278Z,93.12
2019-01-22T19:15:25.200Z,93.08
2019-01-22T19:17:53.946Z,92.89
2019-01-22T19:20:22.658Z,92.84
2019-01-22T19:22:51.421Z,92.94
2019-01-22T19:25:25.742Z,93.01
2019-01-22T19:27:54.158Z,92.92
2019-01-22T19:30:25.134Z,92.83
2019-01-22T19:32:53.624Z,92.94
2019-01-22T19:35:22.378Z,92.94
2019-01-22T19:37:51.185Z,93.10
2019-01-22T19:40:20.179Z,92.88
2019-01-22T19:42:48.984Z,93.04
2019-01-22T19:45:28.749Z,93.07
2019-01-22T19:47:57.238Z,93.07
2019-01-22T19:50:26.032Z,93.01
2019-01-22T19:52:55.349Z,93.18
2019-01-22T19:55:24.028Z,93.08
2019-01-22T19:57:52.822Z,93.02
2019-01-22T20:00:23.941Z,93.39
2019-01-22T20:02:52.729Z,93.26
2019-01-22T20:05:21.570Z,93.07
2019-01-22T20:07:50.347Z,93.14
2019-01-22T20:10:19.117Z,93.15
2019-01-22T20:12:48.103Z,92.97
2019-01-22T20:15:21.469Z,92.97
2019-01-22T20:17:50.289Z,93.18
2019-01-22T20:20:19.973Z,92.90
2019-01-22T20:22:48.665Z,92.95
2019-01-22T20:25:18.014Z,93.28
2019-01-22T20:27:48.181Z,93.22
2019-01-22T20:30:25.818Z,92.87
2019-01-22T20:32:54.569Z,92.77
2019-01-22T20:35:23.385Z,92.82
2019-01-22T20:37:52.232Z,93.01
2019-01-22T20:40:21.015Z,93.01
2019-01-22T20:42:49.417Z,92.98
2019-01-22T20:45:21.020Z,92.90
2019-01-22T20:47:49.506Z,92.85
2019-01-22T20:50:19.461Z,93.03
2019-01-22T20:52:48.440Z,93.07
2019-01-22T20:55:22.247Z,93.21
2019-01-22T20:57:54.755Z,93.19
2019-01-22T21:00:23.576Z,93.27
2019-01-22T21:02:52.520Z,93.38
2019-01-22T21:05:22.888Z,93.35
2019-01-22T21:07:51.434Z,93.19
2019-01-22T21:10:23.075Z,93.38
2019-01-22T21:12:51.493Z,93.44
2019-01-22T21:15:20.291Z,93.43
2019-01-22T21:17:49.228Z,93.37
2019-01-22T21:20:21.852Z,93.62
2019-01-22T21:22:50.699Z,93.66
2019-01-22T21:25:21.719Z,93.49
2019-01-22T21:27:50.767Z,93.76
2019-01-22T21:30:27.574Z,93.83
2019-01-22T21:32:57.604Z,93.84
2019-01-22T21:35:27.423Z,93.94
2019-01-22T21:37:55.905Z,93.61
2019-01-22T21:40:24.537Z,93.51
2019-01-22T21:42:53.302Z,93.57
2019-01-22T21:45:24.371Z,93.53
2019-01-22T21:47:53.261Z,93.30
2019-01-22T21:50:22.078Z,93.59
2019-01-22T21:52:50.536Z,93.34
2019-01-22T21:55:21.747Z,93.49
2019-01-22T21:57:50.327Z,93.65
2019-01-22T22:00:28.490Z,93.57
2019-01-22T22:02:57.382Z,93.48
2019-01-22T22:05:28.898Z,93.59
2019-01-22T22:07:57.813Z,93.64
2019-01-22T22:10:27.176Z,93.67
2019-01-22T22:12:55.652Z,93.72
2019-01-22T22:15:26.181Z,93.68
2019-01-22T22:17:54.653Z,93.61
2019-01-22T22:20:23.413Z,93.56
2019-01-22T22:22:51.909Z,93.73
2019-01-22T22:25:23.980Z,93.76
2019-01-22T22:27:52.837Z,93.89
2019-01-22T22:30:27.275Z,93.96
2019-01-22T22:32:55.956Z,94.08
2019-01-22T22:35:24.522Z,93.99
2019-01-22T22:37:53.261Z,93.84
2019-01-22T22:40:22.781Z,93.85
2019-01-22T22:42:51.346Z,93.90
2019-01-22T22:45:23.096Z,93.67
2019-01-22T22:47:52.331Z,93.72
2019-01-22T22:50:26.107Z,93.84
2019-01-22T22:52:54.892Z,94.05
2019-01-22T22:55:23.644Z,93.96
2019-01-22T22:57:52.399Z,94.15
2019-01-22T23:00:40.028Z,94.13
2019-01-22T23:03:08.975Z,94.05
2019-01-22T23:05:38.441Z,94.05
2019-01-22T23:08:06.936Z,93.98
2019-01-22T23:10:35.789Z,94.14
2019-01-22T23:13:05.020Z,94.28
2019-01-22T23:15:33.666Z,94.25
2019-01-22T23:18:02.175Z,94.24
2019-01-22T23:20:30.649Z,94.38
2019-01-22T23:22:59.078Z,94.37
2019-01-22T23:25:27.489Z,94.33
2019-01-22T23:27:55.992Z,94.27
2019-01-22T23:30:24.755Z,94.30
2019-01-22T23:32:54.832Z,94.40
2019-01-22T23:35:23.643Z,94.27
2019-01-22T23:37:52.101Z,94.03
2019-01-22T23:40:20.960Z,94.01
2019-01-22T23:42:49.713Z,94.03
2019-01-22T23:45:18.543Z,93.99
2019-01-22T23:47:47.271Z,93.74
2019-01-22T23:50:16.406Z,93.98
2019-01-22T23:52:45.232Z,93.92
2019-01-22T23:55:19.433Z,93.77
2019-01-22T23:57:48.206Z,93.92
